Whaley Bridge, United Kingdom
Current Conditions -  °F | °C
As of 5:20 AM on Saturday 29 Nov 2014 (Local Time) from EGCC Reporting Station
Light Rain Light Rain  
Wind Chill: 50°   Ceiling: Unl
Heat Index: 50°   Visibility: 6mi
Dew Point: 48°   Wind: 7mph
Humidity: 94%   Direction: 70°ENE
Pressure: 29.8"   Gusts: NA
Location:  53.33°N, 1.98°W
Report Text: EGCC 290520Z 07006KT 9000 -RA NSC 10/09 Q1009 TEMPO 4000 RA
Loading
Personal Weather Stations






























Interactive Weather Map New forecast layout! Learn more

10-Day Weather Forecast

Advertisements
Track Severe Weather on mobile